Time;durP1;ratioP1;P1;durP2;ratioP2;P2;SDS_P1;SDS_P2;PMS_P1;PMS_P2;Temp;Humidity;BMP_temperature;BMP_pressure;BME280_temperature;BME280_humidity;BME280_pressure;Samples;Min_cycle;Max_cycle;Signal;HPM_P1;HPM_P2
2021/07/10 00:00:53;;;;;;;3.40;3.10;;;15.80;99.90;;;;;;6134304;23;20406;-46
2021/07/10 00:03:20;;;;;;;3.30;3.00;;;15.70;99.90;;;;;;6133987;23;20411;-40
2021/07/10 00:05:47;;;;;;;3.33;3.03;;;15.70;99.90;;;;;;6134445;23;20504;-42
2021/07/10 00:08:14;;;;;;;3.13;2.63;;;15.70;99.90;;;;;;6134099;23;20406;-40
2021/07/10 00:10:41;;;;;;;3.30;3.00;;;15.70;99.90;;;;;;6133802;23;20454;-42
2021/07/10 00:13:08;;;;;;;2.70;2.30;;;15.70;99.90;;;;;;6133744;23;20912;-47
2021/07/10 00:15:34;;;;;;;3.90;2.40;;;15.70;99.90;;;;;;6135128;23;20882;-43
2021/07/10 00:18:03;;;;;;;6.43;3.50;;;15.70;99.90;;;;;;6134348;23;20435;-45
2021/07/10 00:20:30;;;;;;;3.13;2.67;;;15.60;99.90;;;;;;6134206;23;20406;-41
2021/07/10 00:22:56;;;;;;;5.70;4.90;;;15.60;99.90;;;;;;6135018;23;20411;-45
2021/07/10 00:25:23;;;;;;;3.63;3.33;;;15.60;99.90;;;;;;6135861;23;20469;-47
2021/07/10 00:27:52;;;;;;;3.83;3.50;;;15.60;99.90;;;;;;6133824;23;20399;-43
2021/07/10 00:30:20;;;;;;;3.40;3.10;;;15.60;99.90;;;;;;6134135;23;20493;-43
2021/07/10 00:32:47;;;;;;;3.30;3.00;;;15.60;99.90;;;;;;6137136;23;20410;-47
2021/07/10 00:35:16;;;;;;;3.73;2.90;;;15.60;99.90;;;;;;6134867;23;20470;-41
2021/07/10 00:37:44;;;;;;;3.50;3.20;;;15.60;99.90;;;;;;6134941;23;20407;-45
2021/07/10 00:40:12;;;;;;;3.50;3.20;;;15.60;99.90;;;;;;6134541;23;20406;-41
2021/07/10 00:42:41;;;;;;;3.17;2.90;;;15.60;99.90;;;;;;6134864;23;20470;-45
2021/07/10 00:45:09;;;;;;;3.17;2.87;;;15.60;99.90;;;;;;6134857;23;20438;-41
2021/07/10 00:47:36;;;;;;;4.23;3.17;;;15.60;99.90;;;;;;6134404;23;20407;-45
2021/07/10 00:50:08;;;;;;;4.10;3.20;;;15.60;99.90;;;;;;6134705;23;20470;-41
2021/07/10 00:52:36;;;;;;;3.07;2.80;;;15.60;99.90;;;;;;6135012;23;20387;-45
2021/07/10 00:55:03;;;;;;;4.97;3.50;;;15.60;99.90;;;;;;6134642;23;20482;-47
2021/07/10 00:57:30;;;;;;;3.90;3.53;;;15.70;99.90;;;;;;6133753;23;20486;-45
2021/07/10 00:59:57;;;;;;;4.07;3.70;;;15.70;99.90;;;;;;6134540;23;20407;-48
2021/07/10 01:02:23;;;;;;;3.67;3.37;;;15.70;99.90;;;;;;6134433;23;20422;-42
2021/07/10 01:04:50;;;;;;;3.43;3.20;;;15.70;99.90;;;;;;6133957;23;20474;-47
2021/07/10 01:07:17;;;;;;;4.40;4.00;;;15.70;99.90;;;;;;6133768;23;20406;-48
2021/07/10 01:09:45;;;;;;;5.03;3.23;;;15.80;99.90;;;;;;6134569;23;20434;-43
2021/07/10 01:12:12;;;;;;;4.60;4.20;;;15.80;99.90;;;;;;6134867;23;21072;-42
2021/07/10 01:14:39;;;;;;;5.67;4.47;;;15.80;99.90;;;;;;6135404;23;20466;-41
2021/07/10 01:17:05;;;;;;;4.47;4.07;;;15.80;99.90;;;;;;6135242;23;20407;-44
2021/07/10 01:19:32;;;;;;;4.43;4.00;;;15.80;99.90;;;;;;6134709;23;20410;-41
2021/07/10 01:22:00;;;;;;;3.77;3.40;;;15.80;99.90;;;;;;6134385;23;20948;-41
2021/07/10 01:24:27;;;;;;;4.50;4.10;;;15.70;99.90;;;;;;6131312;23;20762;-44
2021/07/10 01:26:54;;;;;;;4.60;4.20;;;15.70;99.90;;;;;;6131918;23;20406;-42
2021/07/10 01:29:21;;;;;;;4.80;4.30;;;15.70;99.90;;;;;;6132136;23;20402;-41
2021/07/10 01:31:53;;;;;;;5.30;4.80;;;15.70;99.90;;;;;;6132614;23;20481;-40
2021/07/10 01:34:19;;;;;;;8.93;5.20;;;15.70;99.90;;;;;;6136272;23;20402;-48
2021/07/10 01:36:47;;;;;;;4.50;4.10;;;15.70;99.90;;;;;;6135440;23;20441;-40
2021/07/10 01:39:15;;;;;;;5.67;5.07;;;15.70;99.90;;;;;;6135013;23;20469;-45
2021/07/10 01:41:47;;;;;;;7.60;4.97;;;15.70;99.90;;;;;;6135770;23;20406;-42
2021/07/10 01:44:17;;;;;;;7.70;6.17;;;15.70;99.90;;;;;;6135399;23;20458;-41
2021/07/10 01:46:43;;;;;;;5.73;5.13;;;15.70;99.90;;;;;;6134563;23;20858;-46
2021/07/10 01:49:10;;;;;;;5.73;5.00;;;15.70;99.90;;;;;;6134161;23;20438;-48
2021/07/10 01:51:36;;;;;;;7.20;6.50;;;15.70;99.90;;;;;;6134872;23;20465;-42
2021/07/10 01:54:03;;;;;;;7.60;6.90;;;15.70;99.90;;;;;;6134271;23;20418;-47
2021/07/10 01:56:31;;;;;;;6.27;5.53;;;15.70;99.90;;;;;;6134462;23;20506;-44
2021/07/10 01:58:58;;;;;;;6.60;6.00;;;15.80;99.90;;;;;;6134264;23;20407;-44
2021/07/10 02:01:25;;;;;;;5.87;5.30;;;15.80;99.90;;;;;;6134229;23;20410;-41
2021/07/10 02:03:51;;;;;;;11.20;6.80;;;15.80;99.90;;;;;;6134063;23;20402;-41
2021/07/10 02:06:19;;;;;;;5.87;5.27;;;15.80;99.90;;;;;;6134309;23;20442;-41
2021/07/10 02:08:45;;;;;;;9.87;6.47;;;15.80;99.90;;;;;;6134366;23;20532;-41
2021/07/10 02:11:12;;;;;;;9.93;6.80;;;15.80;99.90;;;;;;6134398;23;20399;-41
2021/07/10 02:13:40;;;;;;;7.50;6.60;;;15.80;99.90;;;;;;6134988;23;20501;-41
2021/07/10 02:16:07;;;;;;;7.63;6.93;;;15.80;99.90;;;;;;6135334;23;20442;-43
2021/07/10 02:18:34;;;;;;;7.63;6.80;;;15.80;99.90;;;;;;6134210;23;20427;-43
2021/07/10 02:21:03;;;;;;;8.07;7.10;;;15.80;99.90;;;;;;6134296;23;20406;-44
2021/07/10 02:23:30;;;;;;;11.37;7.87;;;15.90;99.90;;;;;;6133280;23;20458;-43
2021/07/10 02:25:57;;;;;;;8.30;7.20;;;15.90;99.90;;;;;;6133284;23;20438;-44
2021/07/10 02:28:23;;;;;;;8.77;7.40;;;16.00;99.90;;;;;;6133211;23;20471;-41
2021/07/10 02:30:51;;;;;;;9.10;6.80;;;16.00;99.90;;;;;;6133093;23;20438;-46
2021/07/10 02:33:20;;;;;;;9.47;8.07;;;16.00;99.90;;;;;;6133479;23;20909;-41
2021/07/10 02:35:47;;;;;;;8.50;7.70;;;16.00;99.90;;;;;;6132520;23;20541;-42
2021/07/10 02:38:14;;;;;;;9.93;7.37;;;16.00;99.90;;;;;;6132972;23;20402;-41
2021/07/10 02:40:41;;;;;;;8.60;7.77;;;16.10;99.90;;;;;;6133165;23;20508;-47
2021/07/10 02:43:08;;;;;;;13.87;9.00;;;16.10;99.90;;;;;;6133027;23;20481;-42
2021/07/10 02:45:36;;;;;;;9.83;8.20;;;16.10;99.90;;;;;;6132129;23;20716;-41
2021/07/10 02:48:05;;;;;;;8.57;7.47;;;16.20;99.90;;;;;;6131482;23;20703;-43
2021/07/10 02:50:32;;;;;;;11.40;9.33;;;16.20;99.90;;;;;;6132735;23;20407;-44
2021/07/10 02:53:04;;;;;;;8.40;7.43;;;16.20;99.90;;;;;;6133814;23;20414;-43
2021/07/10 02:55:32;;;;;;;11.23;9.00;;;16.20;99.90;;;;;;6135157;23;20391;-45
2021/07/10 02:57:59;;;;;;;8.07;7.27;;;16.20;99.90;;;;;;6138559;23;20406;-44
2021/07/10 03:00:29;;;;;;;11.67;10.50;;;16.20;99.90;;;;;;6135638;23;20885;-41
2021/07/10 03:02:56;;;;;;;9.60;8.60;;;16.30;99.90;;;;;;6136301;23;20458;-43
2021/07/10 03:05:28;;;;;;;9.80;7.83;;;16.30;99.90;;;;;;6136080;23;20446;-41
2021/07/10 03:07:55;;;;;;;10.43;8.10;;;16.40;99.90;;;;;;6134784;23;20410;-42
2021/07/10 03:10:25;;;;;;;13.23;8.67;;;16.30;99.90;;;;;;6133725;23;20434;-42
2021/07/10 03:12:52;;;;;;;9.57;8.57;;;16.30;99.90;;;;;;6134642;23;20410;-42
2021/07/10 03:15:19;;;;;;;10.90;9.70;;;16.40;99.90;;;;;;6139148;23;20434;-47
2021/07/10 03:17:47;;;;;;;12.10;9.20;;;16.40;99.90;;;;;;6134572;23;20433;-47
2021/07/10 03:20:15;;;;;;;9.30;8.40;;;16.40;99.90;;;;;;6134238;23;20410;-42
2021/07/10 03:22:43;;;;;;;8.83;7.90;;;16.40;99.90;;;;;;6134703;23;20438;-48
2021/07/10 03:25:12;;;;;;;10.00;8.87;;;16.40;99.90;;;;;;6134587;23;20438;-48
2021/07/10 03:27:39;;;;;;;9.57;8.03;;;16.40;99.90;;;;;;6134467;23;20442;-42
2021/07/10 03:30:08;;;;;;;10.37;8.13;;;16.50;99.90;;;;;;6134385;23;20403;-42
2021/07/10 03:32:34;;;;;;;9.47;8.23;;;16.50;99.90;;;;;;6134517;23;20442;-43
2021/07/10 03:35:02;;;;;;;12.90;7.77;;;16.50;99.90;;;;;;6134768;23;20418;-43
2021/07/10 03:37:32;;;;;;;11.80;8.37;;;16.50;99.90;;;;;;6134775;23;20446;-45
2021/07/10 03:40:00;;;;;;;8.87;7.97;;;16.60;99.90;;;;;;6134393;23;20415;-50
2021/07/10 03:42:27;;;;;;;8.70;7.80;;;16.60;99.90;;;;;;6108875;23;20446;-41
2021/07/10 03:44:56;;;;;;;11.47;9.00;;;16.60;99.90;;;;;;6133759;23;20469;-43
2021/07/10 03:47:28;;;;;;;11.60;8.47;;;16.60;99.90;;;;;;6133952;23;20407;-41
2021/07/10 03:49:55;;;;;;;10.63;8.40;;;16.60;99.90;;;;;;6134236;23;20402;-44
2021/07/10 03:52:22;;;;;;;8.97;8.10;;;16.60;99.90;;;;;;6134323;23;20406;-45
2021/07/10 03:54:52;;;;;;;11.03;9.27;;;16.60;99.90;;;;;;6134032;23;20434;-47
2021/07/10 03:57:20;;;;;;;11.50;9.50;;;16.60;99.90;;;;;;6134456;23;20820;-41
2021/07/10 03:59:48;;;;;;;11.33;8.33;;;16.60;99.90;;;;;;6133422;23;20419;-42
2021/07/10 04:02:15;;;;;;;14.97;8.87;;;16.70;99.90;;;;;;6133501;23;20426;-43
2021/07/10 04:04:42;;;;;;;9.83;8.83;;;16.70;99.90;;;;;;6133606;23;20723;-41
2021/07/10 04:07:09;;;;;;;13.07;9.77;;;16.70;99.90;;;;;;6133091;23;20458;-44
2021/07/10 04:09:39;;;;;;;10.67;8.00;;;16.70;99.90;;;;;;6132910;23;20439;-47
2021/07/10 04:12:06;;;;;;;9.00;7.87;;;16.70;99.90;;;;;;6134698;23;20725;-41
2021/07/10 04:14:38;;;;;;;11.67;9.00;;;16.70;99.90;;;;;;6133345;23;20407;-42
2021/07/10 04:17:05;;;;;;;12.50;10.23;;;16.80;99.90;;;;;;6132960;23;20392;-48
2021/07/10 04:19:32;;;;;;;12.30;9.67;;;16.80;99.90;;;;;;6133307;23;20417;-41
2021/07/10 04:21:59;;;;;;;10.87;9.77;;;16.70;99.90;;;;;;6133745;23;20410;-40
2021/07/10 04:24:26;;;;;;;12.57;10.40;;;16.70;99.90;;;;;;6134039;23;20736;-41
2021/07/10 04:26:52;;;;;;;12.17;9.87;;;16.70;99.90;;;;;;6133785;23;20446;-40
2021/07/10 04:29:19;;;;;;;12.73;10.40;;;16.60;99.90;;;;;;6133353;23;20414;-42
2021/07/10 04:31:49;;;;;;;11.40;10.20;;;16.70;99.90;;;;;;6133143;23;20850;-41
2021/07/10 04:34:19;;;;;;;15.57;11.27;;;16.70;99.90;;;;;;6133326;23;20458;-50
2021/07/10 04:36:45;;;;;;;15.10;11.27;;;16.60;99.90;;;;;;6132940;23;20402;-40
2021/07/10 04:39:12;;;;;;;12.07;9.43;;;16.60;99.90;;;;;;6133492;23;20962;-43
2021/07/10 04:41:39;;;;;;;11.10;10.03;;;16.60;99.90;;;;;;6133472;23;20485;-42
2021/07/10 04:44:05;;;;;;;13.23;10.67;;;16.60;99.90;;;;;;6134133;23;20407;-46
2021/07/10 04:46:32;;;;;;;14.80;10.70;;;16.60;99.90;;;;;;6133635;23;20442;-44
2021/07/10 04:49:00;;;;;;;14.40;9.90;;;16.60;99.90;;;;;;6133755;23;20459;-46
2021/07/10 04:51:27;;;;;;;17.00;9.90;;;16.60;99.90;;;;;;6134147;23;20411;-47
2021/07/10 04:53:54;;;;;;;13.60;10.33;;;16.50;99.90;;;;;;6133636;23;20402;-44
2021/07/10 04:56:20;;;;;;;13.47;9.00;;;16.60;99.90;;;;;;6133691;23;20925;-42
2021/07/10 04:58:47;;;;;;;14.60;9.93;;;16.60;99.90;;;;;;6133160;23;20434;-44
2021/07/10 05:01:14;;;;;;;13.00;10.70;;;16.60;99.90;;;;;;6133818;23;20398;-41
2021/07/10 05:03:41;;;;;;;14.23;8.57;;;16.60;99.90;;;;;;6133117;23;20443;-46
2021/07/10 05:06:10;;;;;;;13.53;10.33;;;16.70;99.90;;;;;;6132203;23;20731;-41
2021/07/10 05:08:36;;;;;;;11.20;8.97;;;16.70;99.90;;;;;;6132482;23;20470;-42
2021/07/10 05:11:04;;;;;;;12.00;9.53;;;16.70;99.90;;;;;;6132731;23;20391;-46
2021/07/10 05:13:31;;;;;;;12.60;9.43;;;16.70;99.90;;;;;;6133243;23;20422;-43
2021/07/10 05:15:57;;;;;;;11.83;10.10;;;16.70;99.90;;;;;;6133316;23;20406;-44
2021/07/10 05:18:24;;;;;;;18.40;10.33;;;16.80;99.90;;;;;;6132856;23;20481;-43
2021/07/10 05:20:51;;;;;;;12.60;9.60;;;16.80;99.90;;;;;;6133223;23;20402;-40
2021/07/10 05:23:19;;;;;;;13.13;9.70;;;16.80;99.90;;;;;;6133680;23;20419;-41
2021/07/10 05:25:46;;;;;;;11.30;9.30;;;16.80;99.90;;;;;;6133733;23;20435;-41
2021/07/10 05:28:12;;;;;;;14.50;10.67;;;16.90;99.90;;;;;;6132718;23;20470;-41
2021/07/10 05:30:43;;;;;;;11.50;9.37;;;16.90;99.90;;;;;;6133236;23;20897;-41
2021/07/10 05:33:09;;;;;;;14.63;10.60;;;16.90;99.90;;;;;;6133256;23;20423;-41
2021/07/10 05:35:38;;;;;;;11.27;9.13;;;16.90;99.90;;;;;;6133382;23;20407;-41
2021/07/10 05:38:04;;;;;;;12.97;10.70;;;16.90;99.90;;;;;;6133296;23;20501;-42
2021/07/10 05:40:33;;;;;;;13.10;9.93;;;16.90;99.90;;;;;;6132938;23;20457;-42
2021/07/10 05:43:00;;;;;;;12.60;9.70;;;16.90;99.90;;;;;;6133195;23;20406;-47
2021/07/10 05:45:27;;;;;;;9.70;8.57;;;16.90;99.90;;;;;;6132632;23;20406;-42
2021/07/10 05:47:54;;;;;;;13.87;9.50;;;16.90;99.90;;;;;;6132166;23;20442;-49
2021/07/10 05:50:21;;;;;;;13.07;10.30;;;16.90;99.90;;;;;;6132841;23;20407;-44
2021/07/10 05:52:47;;;;;;;12.23;9.17;;;16.90;99.90;;;;;;6132225;23;20438;-48
2021/07/10 05:55:14;;;;;;;12.63;9.87;;;16.90;99.90;;;;;;6131791;23;20695;-47
2021/07/10 05:57:42;;;;;;;10.00;9.00;;;16.90;99.90;;;;;;6132338;23;20414;-47
2021/07/10 06:00:11;;;;;;;11.20;9.97;;;17.00;99.90;;;;;;6131555;23;20410;-47
2021/07/10 06:02:38;;;;;;;12.80;10.23;;;17.00;99.90;;;;;;6131807;23;20406;-45
2021/07/10 06:05:07;;;;;;;14.73;9.30;;;17.10;99.90;;;;;;6131862;23;20441;-44
2021/07/10 06:07:37;;;;;;;13.07;10.40;;;17.20;99.90;;;;;;6133333;23;20525;-47
2021/07/10 06:10:06;;;;;;;11.53;8.90;;;17.30;99.90;;;;;;6132418;23;20439;-41
2021/07/10 06:12:32;;;;;;;12.97;10.40;;;17.40;99.90;;;;;;6132512;23;20402;-51
2021/07/10 06:15:02;;;;;;;12.57;9.27;;;17.40;99.90;;;;;;6132326;23;20415;-44
2021/07/10 06:17:29;;;;;;;10.30;8.63;;;17.40;99.90;;;;;;6131936;23;20386;-41
2021/07/10 06:19:56;;;;;;;13.67;9.30;;;17.50;99.90;;;;;;6132043;23;20421;-45
2021/07/10 06:22:22;;;;;;;11.60;9.80;;;17.50;99.90;;;;;;6132100;23;20473;-41
2021/07/10 06:24:50;;;;;;;10.17;8.20;;;17.50;99.90;;;;;;6133707;23;20749;-43
2021/07/10 06:27:17;;;;;;;17.17;8.73;;;17.60;99.90;;;;;;6133628;23;20470;-41
2021/07/10 06:29:44;;;;;;;13.70;9.50;;;17.60;99.90;;;;;;6133734;23;20436;-44
2021/07/10 06:32:13;;;;;;;9.70;8.40;;;17.60;99.90;;;;;;6134423;23;20462;-42
2021/07/10 06:34:40;;;;;;;17.83;9.73;;;17.70;99.90;;;;;;6133673;23;20779;-44
2021/07/10 06:37:07;;;;;;;9.73;8.30;;;17.80;99.90;;;;;;6133855;23;20854;-44
2021/07/10 06:39:34;;;;;;;10.77;9.10;;;17.90;99.90;;;;;;6134117;23;20410;-44
2021/07/10 06:42:00;;;;;;;10.97;8.63;;;17.90;99.90;;;;;;6133815;23;20423;-45
2021/07/10 06:44:27;;;;;;;10.13;8.60;;;17.90;99.90;;;;;;6133939;23;20422;-42
2021/07/10 06:46:54;;;;;;;10.23;8.27;;;17.90;99.90;;;;;;6133898;23;20497;-43
2021/07/10 06:49:22;;;;;;;12.13;9.10;;;17.90;99.90;;;;;;6133450;23;20474;-40
2021/07/10 06:51:49;;;;;;;10.93;9.20;;;17.90;99.90;;;;;;6133552;23;20406;-44
2021/07/10 06:54:16;;;;;;;13.17;8.67;;;17.90;99.90;;;;;;6133939;23;20417;-41
2021/07/10 06:56:43;;;;;;;14.27;9.50;;;17.90;99.90;;;;;;6133334;23;20407;-42
2021/07/10 06:59:11;;;;;;;13.17;9.43;;;17.90;99.90;;;;;;6133941;23;20472;-49
2021/07/10 07:01:38;;;;;;;11.37;10.20;;;17.90;99.90;;;;;;6134133;23;20407;-46
2021/07/10 07:04:05;;;;;;;13.93;9.90;;;18.00;99.90;;;;;;6133996;23;20421;-41
2021/07/10 07:06:34;;;;;;;11.67;9.17;;;18.00;99.90;;;;;;6133828;23;20462;-44
2021/07/10 07:09:00;;;;;;;10.53;8.10;;;18.00;99.90;;;;;;6133625;23;20508;-43
2021/07/10 07:11:27;;;;;;;10.93;9.00;;;18.10;99.90;;;;;;6133636;23;20411;-41
2021/07/10 07:13:53;;;;;;;10.03;8.93;;;18.10;99.90;;;;;;6133333;23;20727;-45
2021/07/10 07:16:20;;;;;;;11.03;8.30;;;18.10;99.90;;;;;;6134105;23;20744;-42
2021/07/10 07:18:47;;;;;;;9.90;8.50;;;18.20;99.90;;;;;;6133643;23;20417;-43
2021/07/10 07:21:14;;;;;;;11.37;8.00;;;18.40;99.90;;;;;;6133204;23;20430;-41
2021/07/10 07:23:42;;;;;;;12.80;7.37;;;18.60;99.90;;;;;;6134379;23;20422;-40
2021/07/10 07:26:10;;;;;;;9.23;7.10;;;18.70;99.90;;;;;;6134261;23;20735;-41
2021/07/10 07:28:37;;;;;;;11.60;7.10;;;18.90;99.90;;;;;;6134348;23;20466;-43
2021/07/10 07:31:04;;;;;;;9.80;8.80;;;19.30;99.90;;;;;;6133532;23;20884;-40
2021/07/10 07:33:30;;;;;;;9.37;6.77;;;19.60;99.90;;;;;;6132771;23;20474;-42
2021/07/10 07:35:57;;;;;;;15.17;8.23;;;20.10;99.90;;;;;;6133344;23;20878;-40
2021/07/10 07:38:24;;;;;;;15.87;6.67;;;20.30;99.90;;;;;;6133614;23;20410;-45
2021/07/10 07:40:53;;;;;;;6.20;5.60;;;20.50;99.90;;;;;;6132845;23;20422;-42
2021/07/10 07:43:19;;;;;;;11.60;6.40;;;20.80;99.90;;;;;;6132956;23;20414;-43
2021/07/10 07:45:46;;;;;;;7.80;7.00;;;20.80;99.90;;;;;;6132420;23;20766;-44
2021/07/10 07:48:13;;;;;;;7.70;6.90;;;20.80;99.90;;;;;;6132493;23;20449;-42
2021/07/10 07:50:40;;;;;;;6.70;5.97;;;20.60;99.90;;;;;;6132098;23;20770;-46
2021/07/10 07:53:06;;;;;;;7.10;6.10;;;20.80;99.90;;;;;;6132346;23;20502;-40
2021/07/10 07:55:34;;;;;;;7.27;6.10;;;20.90;99.90;;;;;;6132122;23;20415;-41
2021/07/10 07:58:02;;;;;;;10.27;7.10;;;21.00;99.90;;;;;;6132703;23;20409;-42
2021/07/10 08:00:29;;;;;;;6.10;5.50;;;21.60;99.90;;;;;;6132065;23;20469;-43
2021/07/10 08:02:56;;;;;;;7.57;5.83;;;21.70;99.90;;;;;;6132332;23;20419;-40
2021/07/10 08:05:23;;;;;;;7.20;6.50;;;21.40;99.90;;;;;;6132297;23;20407;-44
2021/07/10 08:07:50;;;;;;;8.53;5.63;;;21.30;99.90;;;;;;6132294;23;20442;-44
2021/07/10 08:10:18;;;;;;;6.83;6.17;;;21.20;99.90;;;;;;6131651;23;20505;-42
2021/07/10 08:12:49;;;;;;;6.53;5.37;;;21.00;99.90;;;;;;6132276;23;20512;-43
2021/07/10 08:15:18;;;;;;;6.73;5.50;;;21.10;99.90;;;;;;6132156;23;20391;-40
2021/07/10 08:17:46;;;;;;;5.07;4.57;;;22.10;99.90;;;;;;6131942;23;20738;-47
2021/07/10 08:20:15;;;;;;;7.20;5.53;;;22.80;99.90;;;;;;6132077;23;20439;-42
2021/07/10 08:22:42;;;;;;;7.80;5.10;;;22.90;99.90;;;;;;6131621;23;20395;-43
2021/07/10 08:25:12;;;;;;;6.07;5.40;;;23.40;99.90;;;;;;6132208;23;20421;-43
2021/07/10 08:27:40;;;;;;;5.17;4.67;;;23.90;99.90;;;;;;6131385;23;20521;-41
2021/07/10 08:30:08;;;;;;;5.57;5.03;;;24.20;99.90;;;;;;6131416;23;20873;-47
2021/07/10 08:32:36;;;;;;;6.53;4.93;;;24.10;99.90;;;;;;6131231;23;20429;-44
2021/07/10 08:35:05;;;;;;;4.83;4.40;;;24.40;99.90;;;;;;6131336;23;20491;-46
2021/07/10 08:37:31;;;;;;;5.67;4.57;;;24.90;99.90;;;;;;6131637;23;20473;-43
2021/07/10 08:39:58;;;;;;;6.40;4.93;;;25.00;99.90;;;;;;6131932;23;20695;-44
2021/07/10 08:42:25;;;;;;;5.13;4.63;;;25.20;99.90;;;;;;6131739;23;20407;-41
2021/07/10 08:44:53;;;;;;;5.23;4.73;;;26.00;99.90;;;;;;6131785;23;20720;-45
2021/07/10 08:47:21;;;;;;;5.30;4.47;;;26.20;99.90;;;;;;6131158;23;20776;-44
2021/07/10 08:49:49;;;;;;;5.77;5.10;;;26.60;99.90;;;;;;6132266;23;20411;-42
2021/07/10 08:52:16;;;;;;;5.10;4.47;;;27.30;99.90;;;;;;6130996;23;20413;-44
2021/07/10 08:54:43;;;;;;;6.13;5.20;;;27.70;99.90;;;;;;6130285;23;20418;-42
2021/07/10 08:57:12;;;;;;;5.40;4.90;;;27.70;99.90;;;;;;6131176;23;20402;-42
2021/07/10 08:59:39;;;;;;;7.43;4.73;;;27.40;99.90;;;;;;6131544;23;20691;-41
2021/07/10 09:02:07;;;;;;;6.20;5.50;;;27.40;99.90;;;;;;6130633;23;20470;-50
2021/07/10 09:04:34;;;;;;;6.47;5.70;;;27.80;99.90;;;;;;6130742;23;20418;-41
2021/07/10 09:07:02;;;;;;;6.13;5.53;;;27.70;98.90;;;;;;6130393;23;20442;-41
2021/07/10 09:09:45;;;;;;;11.93;7.97;;;26.60;99.90;;;;;;6130907;23;20451;-42
2021/07/10 09:12:13;;;;;;;7.90;6.20;;;26.30;99.90;;;;;;6131472;23;20395;-40
2021/07/10 09:14:40;;;;;;;9.63;6.07;;;26.10;99.90;;;;;;6130692;23;20446;-45
2021/07/10 09:17:18;;;;;;;7.20;6.50;;;26.10;99.90;;;;;;6130343;23;20422;-43
2021/07/10 09:19:45;;;;;;;9.93;7.40;;;26.20;99.90;;;;;;6130179;23;20402;-44
2021/07/10 09:22:25;;;;;;;7.27;6.57;;;25.80;99.90;;;;;;6130329;23;20458;-44
2021/07/10 09:24:52;;;;;;;6.50;5.83;;;25.80;99.90;;;;;;6130614;23;20753;-42
2021/07/10 09:27:19;;;;;;;7.37;6.07;;;26.10;99.90;;;;;;6130359;23;20442;-44
2021/07/10 09:29:48;;;;;;;7.77;6.97;;;25.60;99.90;;;;;;6130325;23;20889;-44
2021/07/10 09:32:18;;;;;;;9.13;6.43;;;25.30;99.90;;;;;;6130540;23;20407;-44
2021/07/10 09:34:48;;;;;;;7.17;6.47;;;25.10;99.90;;;;;;6130074;23;20410;-41
2021/07/10 09:37:19;;;;;;;8.83;6.43;;;24.60;99.90;;;;;;6130513;23;20379;-41
2021/07/10 09:39:55;;;;;;;8.27;5.43;;;24.50;99.90;;;;;;6130824;23;20406;-44
2021/07/10 09:42:26;;;;;;;6.90;5.53;;;25.10;99.90;;;;;;6130397;23;20434;-45
2021/07/10 09:44:55;;;;;;;6.80;5.47;;;25.30;99.90;;;;;;6130519;23;20474;-42
2021/07/10 09:47:26;;;;;;;15.33;8.37;;;25.60;99.90;;;;;;6130136;23;20808;-44
2021/07/10 09:49:53;;;;;;;8.50;6.83;;;25.60;99.90;;;;;;6130529;23;20498;-46
2021/07/10 09:52:23;;;;;;;8.27;6.50;;;25.40;99.90;;;;;;6130245;23;20391;-44
2021/07/10 09:54:53;;;;;;;6.77;6.17;;;25.40;99.90;;;;;;6130486;23;20403;-43
2021/07/10 09:57:22;;;;;;;10.63;6.47;;;26.10;99.90;;;;;;6129198;23;20398;-45
2021/07/10 09:59:51;;;;;;;8.43;6.40;;;26.50;99.90;;;;;;6129775;23;20403;-42
2021/07/10 10:02:23;;;;;;;7.30;6.60;;;25.90;99.90;;;;;;6129497;23;20456;-47
2021/07/10 10:04:50;;;;;;;8.97;5.50;;;25.30;99.90;;;;;;6129691;23;20431;-48
2021/07/10 10:07:19;;;;;;;12.50;7.57;;;25.30;99.90;;;;;;6129899;23;20454;-47
2021/07/10 10:09:54;;;;;;;8.03;7.23;;;25.30;99.90;;;;;;6129566;23;20743;-42
2021/07/10 10:12:21;;;;;;;8.70;6.27;;;25.40;99.90;;;;;;6129700;23;20386;-41
2021/07/10 10:14:50;;;;;;;7.17;5.70;;;25.70;99.90;;;;;;6129499;23;20457;-42
2021/07/10 10:17:18;;;;;;;6.17;5.57;;;26.10;99.90;;;;;;6129713;23;20419;-42
2021/07/10 10:19:45;;;;;;;6.87;5.90;;;26.10;99.90;;;;;;6129694;23;20417;-44
2021/07/10 10:22:14;;;;;;;6.23;5.67;;;25.70;99.90;;;;;;6127099;23;20410;-40
2021/07/10 11:41:03;;;;;;;5.90;5.30;;;25.20;99.90;;;;;;6127362;23;20429;-48
2021/07/10 11:43:42;;;;;;;6.40;5.00;;;25.30;99.90;;;;;;6183095;23;20685;-48
2021/07/10 11:46:47;;;;;;;6.43;5.50;;;25.30;99.90;;;;;;6183153;23;20386;-51
2021/07/10 11:49:42;;;;;;;5.67;5.00;;;25.30;99.90;;;;;;6182553;23;20430;-45
2021/07/10 11:52:11;;;;;;;5.00;4.50;;;25.30;99.90;;;;;;6183683;23;20373;-47
2021/07/10 11:54:40;;;;;;;6.53;4.83;;;25.40;99.90;;;;;;6171667;23;20449;-45
2021/07/10 11:57:11;;;;;;;6.70;5.30;;;25.50;99.90;;;;;;6148642;23;20462;-45
2021/07/10 11:59:40;;;;;;;7.33;4.67;;;25.70;99.90;;;;;;6128626;23;20390;-45
2021/07/10 12:02:16;;;;;;;12.03;4.60;;;25.80;99.90;;;;;;6128388;23;20450;-49
2021/07/10 12:05:01;;;;;;;4.60;4.20;;;25.70;99.90;;;;;;6128669;23;20406;-47
2021/07/10 12:07:28;;;;;;;5.70;4.97;;;25.80;99.90;;;;;;6128277;23;20430;-45
2021/07/10 12:09:56;;;;;;;4.40;4.00;;;25.80;99.90;;;;;;6128200;23;20409;-48
2021/07/10 12:12:24;;;;;;;4.90;4.40;;;25.70;99.90;;;;;;6127796;23;20465;-51
2021/07/10 12:14:52;;;;;;;5.50;5.00;;;25.60;99.90;;;;;;6128490;23;20407;-48
2021/07/10 12:17:18;;;;;;;6.60;5.20;;;25.40;99.90;;;;;;6128248;23;20410;-50
2021/07/10 12:19:45;;;;;;;5.30;4.80;;;25.30;99.90;;;;;;6127251;23;20407;-51
2021/07/10 12:22:12;;;;;;;6.40;4.60;;;25.30;99.90;;;;;;6127999;23;20482;-46
2021/07/10 12:24:39;;;;;;;4.87;4.27;;;25.30;99.90;;;;;;6127947;23;20407;-50
2021/07/10 12:27:10;;;;;;;5.00;4.37;;;25.30;99.90;;;;;;6128022;23;20465;-49
2021/07/10 12:29:39;;;;;;;4.80;4.40;;;25.20;99.90;;;;;;6128071;23;20402;-47
2021/07/10 12:32:15;;;;;;;5.43;4.20;;;25.10;99.90;;;;;;6127644;23;20909;-52
2021/07/10 12:34:46;;;;;;;5.27;4.40;;;25.10;99.90;;;;;;6127960;23;20390;-47
2021/07/10 12:37:21;;;;;;;5.43;5.03;;;25.20;99.90;;;;;;6127653;23;20847;-48
2021/07/10 12:39:47;;;;;;;4.83;4.43;;;25.40;99.90;;;;;;6127690;23;20404;-46
2021/07/10 12:42:14;;;;;;;6.40;4.53;;;25.40;99.90;;;;;;6127920;23;20462;-46
2021/07/10 12:44:44;;;;;;;7.60;4.33;;;25.30;99.90;;;;;;6127859;23;20413;-49
2021/07/10 12:47:13;;;;;;;4.83;4.23;;;25.30;99.90;;;;;;6127999;23;20446;-49
2021/07/10 12:49:43;;;;;;;6.80;5.10;;;25.40;99.90;;;;;;6128022;23;20407;-50
2021/07/10 18:02:29;;;;;;;7.60;6.27;;;24.40;99.20;;;;;;6102458;23;20455;-45
2021/07/10 18:04:56;;;;;;;8.97;5.67;;;24.30;99.90;;;;;;6187050;23;20393;-45
2021/07/10 21:37:01;;;;;;;13.83;12.43;;;21.00;99.90;;;;;;6103947;23;21943;31
2021/07/10 21:39:28;;;;;;;16.30;13.90;;;21.00;99.90;;;;;;6157095;23;20428;-52
2021/07/10 21:41:54;;;;;;;14.90;13.30;;;21.00;99.90;;;;;;6157432;23;20421;-48
2021/07/10 21:47:24;;;;;;;;;;;;;;;;;;;;;
2021/07/10 21:49:51;;;;;;;25.13;13.57;;;21.00;99.90;;;;;;6136097;23;20482;-45
2021/07/10 21:52:19;;;;;;;15.73;12.77;;;21.00;99.90;;;;;;6126790;23;20401;-49
2021/07/10 21:54:46;;;;;;;17.33;13.40;;;21.00;99.90;;;;;;6127339;23;20411;-44
2021/07/10 21:57:12;;;;;;;15.20;12.23;;;21.00;99.90;;;;;;6127135;23;20410;-49
2021/07/10 21:59:39;;;;;;;13.87;12.13;;;20.90;99.90;;;;;;6127313;23;20411;-52
2021/07/10 22:02:07;;;;;;;16.70;12.37;;;20.90;99.90;;;;;;6127325;23;20493;-50
2021/07/10 22:04:33;;;;;;;14.80;12.33;;;20.90;99.90;;;;;;6127441;23;20500;-50
2021/07/10 22:07:00;;;;;;;17.97;13.77;;;20.90;99.90;;;;;;6127371;23;20473;-46
2021/07/10 22:09:28;;;;;;;14.63;12.20;;;20.90;99.90;;;;;;6127870;23;20454;-49
2021/07/10 22:11:56;;;;;;;13.70;11.57;;;20.90;99.90;;;;;;6127574;23;20765;-50
2021/07/10 22:14:24;;;;;;;14.40;12.03;;;20.90;99.90;;;;;;6127204;23;20485;-49
2021/07/10 22:16:52;;;;;;;13.50;11.80;;;20.90;99.90;;;;;;6127134;23;20450;-48
2021/07/10 22:19:19;;;;;;;17.77;14.10;;;20.80;99.90;;;;;;6126739;23;20469;-50
2021/07/10 22:21:47;;;;;;;14.53;13.03;;;20.80;99.90;;;;;;6127270;23;20469;-49
2021/07/10 22:24:14;;;;;;;16.47;12.17;;;20.80;99.90;;;;;;6126782;23;20406;-45
2021/07/10 22:26:43;;;;;;;13.77;11.70;;;20.80;99.90;;;;;;6127138;23;20415;-45
2021/07/10 22:29:10;;;;;;;15.63;12.90;;;20.80;99.90;;;;;;6126936;23;20439;-49
2021/07/10 22:31:36;;;;;;;14.07;12.50;;;20.80;99.90;;;;;;6127110;23;20715;-48
2021/07/10 22:34:05;;;;;;;17.83;13.97;;;20.80;99.90;;;;;;6127030;23;20422;-48
2021/07/10 22:36:31;;;;;;;13.30;11.80;;;20.70;99.90;;;;;;6127172;23;20685;-49
2021/07/10 22:38:58;;;;;;;14.40;12.70;;;20.70;99.90;;;;;;6127140;23;20462;-49
2021/07/10 22:41:25;;;;;;;16.17;13.40;;;20.70;99.90;;;;;;6126807;23;20477;-45
2021/07/10 22:43:53;;;;;;;13.80;12.40;;;20.70;99.90;;;;;;6127170;23;20411;-50
2021/07/10 22:46:20;;;;;;;16.20;13.17;;;20.60;99.90;;;;;;6126819;23;20880;-50